createdAt,value
2022-10-12T00:00:12.107Z,33.43
2022-10-12T00:01:13.929Z,32.83
2022-10-12T00:02:15.560Z,33.20
2022-10-12T00:03:18.349Z,33.40
2022-10-12T00:04:19.920Z,33.63
2022-10-12T00:05:21.548Z,32.57
2022-10-12T00:06:24.810Z,32.27
2022-10-12T00:07:26.335Z,35.20
2022-10-12T00:08:28.066Z,33.30
2022-10-12T00:09:29.580Z,34.10
2022-10-12T00:10:31.154Z,34.50
2022-10-12T00:11:32.695Z,33.77
2022-10-12T00:12:34.452Z,33.13
2022-10-12T00:13:36.031Z,34.20
2022-10-12T00:14:38.319Z,33.63
2022-10-12T00:15:40.912Z,32.77
2022-10-12T00:16:42.442Z,34.27
2022-10-12T00:17:43.975Z,34.33
2022-10-12T00:18:45.529Z,34.67
2022-10-12T00:19:47.154Z,34.53
2022-10-12T00:20:48.778Z,35.13
2022-10-12T00:21:50.287Z,35.07
2022-10-12T00:22:51.800Z,36.33
2022-10-12T00:23:57.737Z,35.53
2022-10-12T00:24:59.254Z,37.00
2022-10-12T00:26:06.673Z,34.53
2022-10-12T00:27:08.232Z,35.27
2022-10-12T00:28:09.871Z,34.47
2022-10-12T00:29:11.516Z,35.37
2022-10-12T00:30:13.238Z,34.50
2022-10-12T00:31:20.809Z,33.73
2022-10-12T00:32:22.334Z,33.77
2022-10-12T00:33:24.232Z,34.60
2022-10-12T00:34:25.769Z,35.07
2022-10-12T00:35:30.369Z,34.07
2022-10-12T00:36:35.955Z,33.87
2022-10-12T00:37:37.856Z,33.20
2022-10-12T00:38:39.573Z,33.20
2022-10-12T00:39:41.349Z,34.00
2022-10-12T00:40:42.921Z,32.63
2022-10-12T00:41:44.530Z,32.90
2022-10-12T00:42:46.072Z,34.23
2022-10-12T00:43:50.946Z,33.53
2022-10-12T00:44:55.744Z,32.53
2022-10-12T00:45:59.956Z,31.97
2022-10-12T00:47:07.205Z,31.90
2022-10-12T00:48:08.789Z,33.40
2022-10-12T00:49:25.064Z,34.33
2022-10-12T00:50:32.592Z,33.17
2022-10-12T00:51:34.189Z,34.37
2022-10-12T00:52:41.869Z,34.37
2022-10-12T00:53:47.801Z,33.57
2022-10-12T00:54:51.488Z,33.80
2022-10-12T00:55:57.940Z,34.30
2022-10-12T00:57:01.940Z,32.80
2022-10-12T00:58:07.122Z,33.57
2022-10-12T00:59:12.419Z,31.53
2022-10-12T01:00:14.503Z,32.80
2022-10-12T01:01:17.441Z,32.50
2022-10-12T01:02:19.651Z,32.53
2022-10-12T01:03:23.429Z,33.37
2022-10-12T01:04:25.981Z,32.00
2022-10-12T01:05:28.299Z,33.57
2022-10-12T01:06:31.244Z,34.07
2022-10-12T01:07:32.830Z,33.00
2022-10-12T01:08:35.038Z,32.33
2022-10-12T01:09:36.771Z,33.43
2022-10-12T01:10:38.405Z,34.03
2022-10-12T01:11:39.986Z,33.00
2022-10-12T01:12:44.189Z,32.77
2022-10-12T01:13:45.770Z,32.67
2022-10-12T01:14:47.344Z,32.47
2022-10-12T01:15:58.017Z,35.83
2022-10-12T01:17:30.396Z,34.67
2022-10-12T01:19:02.945Z,36.63
2022-10-12T01:20:26.071Z,36.00
2022-10-12T01:21:27.853Z,38.53
2022-10-12T01:22:34.569Z,37.90
2022-10-12T01:24:17.435Z,36.37
2022-10-12T01:25:27.746Z,36.97
2022-10-12T01:26:50.404Z,35.67
2022-10-12T01:28:23.372Z,33.80
2022-10-12T01:30:06.821Z,32.90
2022-10-12T01:31:39.101Z,36.00
2022-10-12T01:32:47.066Z,34.97
2022-10-12T01:34:02.182Z,34.83
2022-10-12T01:35:45.565Z,33.90
2022-10-12T01:37:04.254Z,34.03
2022-10-12T01:38:17.926Z,33.37
2022-10-12T01:39:29.911Z,32.63
2022-10-12T01:40:40.436Z,32.77
2022-10-12T01:41:49.354Z,32.50
2022-10-12T01:42:51.731Z,32.37
2022-10-12T01:43:53.491Z,33.37
2022-10-12T01:45:22.393Z,32.73
2022-10-12T01:46:23.851Z,31.23
2022-10-12T01:47:25.420Z,32.90
2022-10-12T01:48:27.207Z,35.03
2022-10-12T01:49:32.877Z,35.57
2022-10-12T01:50:50.860Z,35.33
2022-10-12T01:52:18.746Z,35.53
2022-10-12T01:53:52.465Z,35.57
2022-10-12T01:55:22.759Z,34.93
2022-10-12T01:56:54.058Z,36.03
2022-10-12T01:58:26.557Z,33.37
2022-10-12T01:59:34.777Z,35.20
2022-10-12T02:01:21.420Z,34.80
2022-10-12T02:02:59.793Z,37.60
2022-10-12T02:04:10.930Z,38.10
2022-10-12T02:05:36.267Z,36.13
2022-10-12T02:06:46.132Z,35.67
2022-10-12T02:08:15.361Z,34.43
2022-10-12T02:09:32.501Z,35.17
2022-10-12T02:10:40.567Z,35.90
2022-10-12T02:11:44.936Z,34.90
2022-10-12T02:12:49.957Z,34.20
2022-10-12T02:13:57.663Z,35.67
2022-10-12T02:15:03.624Z,36.17
2022-10-12T02:16:10.412Z,35.27
2022-10-12T02:17:17.121Z,36.17
2022-10-12T02:18:21.520Z,38.47
2022-10-12T02:19:27.068Z,41.00
2022-10-12T02:20:28.779Z,38.43
2022-10-12T02:21:32.716Z,39.27
2022-10-12T02:22:37.283Z,40.03
2022-10-12T02:23:39.111Z,41.33
2022-10-12T02:24:44.468Z,39.13
2022-10-12T02:25:46.732Z,39.70
2022-10-12T02:26:52.558Z,38.57
2022-10-12T02:28:17.381Z,37.00
2022-10-12T02:29:31.456Z,39.80
2022-10-12T02:30:38.569Z,37.63
2022-10-12T02:31:53.351Z,37.10
2022-10-12T02:33:10.928Z,39.63
2022-10-12T02:34:15.498Z,37.83
2022-10-12T02:35:39.144Z,36.70
2022-10-12T02:36:57.509Z,36.97
2022-10-12T02:38:08.412Z,37.23
2022-10-12T02:39:17.204Z,36.03
2022-10-12T02:40:36.735Z,38.33
2022-10-12T02:41:42.734Z,39.10
2022-10-12T02:43:12.025Z,38.20
2022-10-12T02:44:19.463Z,37.60
2022-10-12T02:45:23.915Z,37.33
2022-10-12T02:46:27.197Z,39.13
2022-10-12T02:47:32.561Z,36.73
2022-10-12T02:48:36.065Z,36.80
2022-10-12T02:49:39.902Z,37.93
2022-10-12T02:50:41.987Z,36.63
2022-10-12T02:51:45.228Z,37.83
2022-10-12T02:52:47.959Z,34.60
2022-10-12T02:53:50.446Z,36.50
2022-10-12T02:54:52.050Z,35.73
2022-10-12T02:55:59.834Z,37.33
2022-10-12T02:57:01.341Z,36.83
2022-10-12T02:58:02.859Z,39.00
2022-10-12T02:59:04.382Z,39.27
2022-10-12T03:00:06.674Z,38.97
2022-10-12T03:01:08.289Z,38.63
2022-10-12T03:02:10.867Z,36.00
2022-10-12T03:03:12.409Z,37.50
2022-10-12T03:04:14.076Z,35.77
2022-10-12T03:05:15.632Z,36.80
2022-10-12T03:06:17.288Z,36.60
2022-10-12T03:07:19.151Z,33.50
2022-10-12T03:08:20.713Z,35.13
2022-10-12T03:09:22.411Z,34.70
2022-10-12T03:10:24.663Z,33.87
2022-10-12T03:11:26.219Z,33.57
2022-10-12T03:12:27.709Z,33.93
2022-10-12T03:13:29.388Z,33.77
2022-10-12T03:14:32.999Z,32.97
2022-10-12T03:15:34.507Z,32.57
2022-10-12T03:16:36.273Z,32.77
2022-10-12T03:17:37.981Z,36.30
2022-10-12T03:18:40.234Z,37.17
2022-10-12T03:19:41.865Z,36.73
2022-10-12T03:20:48.270Z,34.83
2022-10-12T03:21:49.798Z,35.40
2022-10-12T03:22:52.626Z,34.57
2022-10-12T03:23:54.252Z,35.17
2022-10-12T03:24:55.850Z,34.77
2022-10-12T03:25:57.406Z,34.23
2022-10-12T03:26:58.961Z,32.80
2022-10-12T03:28:00.529Z,33.77
2022-10-12T03:29:02.104Z,32.87
2022-10-12T03:30:04.617Z,31.77
2022-10-12T03:31:06.564Z,31.90
2022-10-12T03:32:08.361Z,29.53
2022-10-12T03:33:09.963Z,30.33
2022-10-12T03:34:11.490Z,30.90
2022-10-12T03:35:13.042Z,28.43
2022-10-12T03:36:14.672Z,28.03
2022-10-12T03:37:16.219Z,29.10
2022-10-12T03:38:19.166Z,29.37
2022-10-12T03:39:20.792Z,28.40
2022-10-12T03:40:22.370Z,28.70
2022-10-12T03:41:23.983Z,28.97
2022-10-12T03:42:25.505Z,28.43
2022-10-12T03:43:27.493Z,28.10
2022-10-12T03:44:29.180Z,27.40
2022-10-12T03:45:30.792Z,27.13
2022-10-12T03:46:32.357Z,26.57
2022-10-12T03:47:33.891Z,26.80
2022-10-12T03:48:35.424Z,26.33
2022-10-12T03:49:36.945Z,26.80
2022-10-12T03:50:38.516Z,25.13
2022-10-12T03:51:40.033Z,26.70
2022-10-12T03:52:41.549Z,24.80
2022-10-12T03:53:45.504Z,24.07
2022-10-12T03:54:47.270Z,25.67
2022-10-12T03:55:48.821Z,25.57
2022-10-12T03:56:50.362Z,26.27
2022-10-12T03:57:52.011Z,26.23
2022-10-12T03:58:53.554Z,26.77
2022-10-12T03:59:55.080Z,28.50
2022-10-12T04:00:56.629Z,27.63
2022-10-12T04:01:58.326Z,29.60
2022-10-12T04:03:00.127Z,30.23
2022-10-12T04:04:01.686Z,28.33
2022-10-12T04:05:03.517Z,27.93
2022-10-12T04:06:05.265Z,28.47
2022-10-12T04:07:07.144Z,29.20
2022-10-12T04:08:08.672Z,28.37
2022-10-12T04:09:10.217Z,29.13
2022-10-12T04:10:11.908Z,28.10
2022-10-12T04:11:13.476Z,28.93
2022-10-12T04:12:15.116Z,28.27
2022-10-12T04:13:17.757Z,28.43
2022-10-12T04:14:19.368Z,24.93
2022-10-12T04:16:30.356Z,25.90
2022-10-12T04:17:32.786Z,26.97
2022-10-12T04:18:34.623Z,25.83
2022-10-12T04:19:36.162Z,26.90
2022-10-12T04:20:37.726Z,25.10
2022-10-12T04:21:39.582Z,25.30
2022-10-12T04:22:41.121Z,26.33
2022-10-12T04:23:43.647Z,24.87
2022-10-12T04:24:45.150Z,25.13
2022-10-12T04:25:46.970Z,26.00
2022-10-12T04:26:48.671Z,25.33
2022-10-12T04:27:50.159Z,25.77
2022-10-12T04:28:51.786Z,26.60
2022-10-12T04:29:53.386Z,26.70
2022-10-12T04:30:54.919Z,25.77
2022-10-12T04:31:56.444Z,26.93
2022-10-12T04:32:58.062Z,25.70
2022-10-12T04:33:59.674Z,25.33
2022-10-12T04:35:01.182Z,25.60
2022-10-12T04:36:02.783Z,26.40
2022-10-12T04:37:04.359Z,26.40
2022-10-12T04:38:06.498Z,26.37
2022-10-12T04:39:08.339Z,26.53
2022-10-12T04:40:10.179Z,25.73
2022-10-12T04:41:11.723Z,26.27
2022-10-12T04:42:13.269Z,26.57
2022-10-12T04:43:15.987Z,25.60
2022-10-12T04:44:17.521Z,25.83
2022-10-12T04:45:19.025Z,27.67
2022-10-12T04:46:21.420Z,27.00
2022-10-12T04:47:23.031Z,28.87
2022-10-12T04:48:26.137Z,29.13
2022-10-12T04:49:27.674Z,29.10
2022-10-12T04:50:30.288Z,29.33
2022-10-12T04:51:31.889Z,27.87
2022-10-12T04:52:33.609Z,30.20
2022-10-12T04:53:35.244Z,28.93
2022-10-12T04:54:36.773Z,30.80
2022-10-12T04:55:38.272Z,29.93
2022-10-12T04:56:42.132Z,29.03
2022-10-12T04:57:46.995Z,29.60
2022-10-12T04:58:48.500Z,29.90
2022-10-12T04:59:50.009Z,30.43
2022-10-12T05:00:51.528Z,29.20
2022-10-12T05:01:54.445Z,30.63
2022-10-12T05:02:56.041Z,33.53
2022-10-12T05:03:57.608Z,35.13
2022-10-12T05:04:59.221Z,35.23
2022-10-12T05:06:00.837Z,36.63
2022-10-12T05:07:02.389Z,36.10
2022-10-12T05:08:04.930Z,37.77
2022-10-12T05:09:06.516Z,37.73
2022-10-12T05:10:08.468Z,38.87
2022-10-12T05:11:10.106Z,37.07
2022-10-12T05:12:11.652Z,40.00
2022-10-12T05:13:13.920Z,40.73
2022-10-12T05:14:15.554Z,39.70
2022-10-12T05:15:17.191Z,42.17
2022-10-12T05:16:18.717Z,42.30
2022-10-12T05:17:20.260Z,43.70
2022-10-12T05:18:21.883Z,41.30
2022-10-12T05:19:23.420Z,40.17
2022-10-12T05:20:25.457Z,42.10
2022-10-12T05:21:27.078Z,41.40
2022-10-12T05:22:28.615Z,44.13
2022-10-12T05:23:30.159Z,43.67
2022-10-12T05:24:31.690Z,44.33
2022-10-12T05:25:35.270Z,45.67
2022-10-12T05:26:36.848Z,45.57
2022-10-12T05:27:38.620Z,46.97
2022-10-12T05:28:41.354Z,48.20
2022-10-12T05:29:43.053Z,48.57
2022-10-12T05:30:44.549Z,47.23
2022-10-12T05:31:46.104Z,49.00
2022-10-12T05:32:48.555Z,47.73
2022-10-12T05:33:50.105Z,47.73
2022-10-12T05:34:51.648Z,47.50
2022-10-12T05:35:56.411Z,44.83
2022-10-12T05:36:58.414Z,44.40
2022-10-12T05:37:59.972Z,43.80
2022-10-12T05:39:01.605Z,44.07
2022-10-12T05:40:04.242Z,44.13
2022-10-12T05:41:05.937Z,42.53
2022-10-12T05:42:07.643Z,41.63
2022-10-12T05:43:09.255Z,43.13
2022-10-12T05:44:10.814Z,42.00
2022-10-12T05:45:12.801Z,41.53
2022-10-12T05:46:14.668Z,41.20
2022-10-12T05:47:16.273Z,40.57
2022-10-12T05:48:17.803Z,40.33
2022-10-12T05:49:19.421Z,40.73
2022-10-12T05:50:21.475Z,40.57
2022-10-12T05:51:27.898Z,40.27
2022-10-12T05:52:30.216Z,38.60
2022-10-12T05:53:31.752Z,38.80
2022-10-12T05:54:33.366Z,38.13
2022-10-12T05:55:34.906Z,38.57
2022-10-12T05:56:36.445Z,38.63
2022-10-12T05:57:38.088Z,38.80
2022-10-12T05:58:39.665Z,37.33
2022-10-12T05:59:44.035Z,38.10
2022-10-12T06:00:45.571Z,38.17
2022-10-12T06:01:47.276Z,39.17
2022-10-12T06:02:48.882Z,37.17
2022-10-12T06:03:50.721Z,38.30
2022-10-12T06:04:52.258Z,36.70
2022-10-12T06:05:53.789Z,36.53
2022-10-12T06:06:55.313Z,37.20
2022-10-12T06:07:56.835Z,35.83
2022-10-12T06:08:58.373Z,38.00
2022-10-12T06:10:00.382Z,37.47
2022-10-12T06:11:02.073Z,36.90
2022-10-12T06:12:03.795Z,37.40
2022-10-12T06:13:05.545Z,37.63
2022-10-12T06:14:07.319Z,35.20
2022-10-12T06:15:09.568Z,35.47
2022-10-12T06:16:11.083Z,36.83
2022-10-12T06:17:12.606Z,34.60
2022-10-12T06:18:15.077Z,34.63
2022-10-12T06:19:16.657Z,35.43
2022-10-12T06:20:18.175Z,35.60
2022-10-12T06:21:35.081Z,34.80
2022-10-12T06:22:37.048Z,34.87
2022-10-12T06:23:38.821Z,34.20
2022-10-12T06:24:40.389Z,36.87
2022-10-12T06:25:42.169Z,33.13
2022-10-12T06:26:43.679Z,33.90
2022-10-12T06:27:45.949Z,34.07
2022-10-12T06:28:47.519Z,33.30
2022-10-12T06:29:49.070Z,31.93
2022-10-12T06:30:58.677Z,32.97
2022-10-12T06:32:00.200Z,33.57
2022-10-12T06:33:01.764Z,33.00
2022-10-12T06:34:03.299Z,33.80
2022-10-12T06:35:05.405Z,34.93
2022-10-12T06:36:07.107Z,34.67
2022-10-12T06:37:20.240Z,34.30
2022-10-12T06:38:30.123Z,34.17
2022-10-12T06:39:31.831Z,36.03
2022-10-12T06:40:33.349Z,35.43
2022-10-12T06:41:35.150Z,37.27
2022-10-12T06:42:36.947Z,38.27
2022-10-12T06:43:38.658Z,38.93
2022-10-12T06:44:40.299Z,37.17
2022-10-12T06:45:41.842Z,39.07
2022-10-12T06:46:43.520Z,36.87
2022-10-12T06:47:45.389Z,35.83
2022-10-12T06:48:46.998Z,36.03
2022-10-12T06:49:48.527Z,35.90
2022-10-12T06:50:50.043Z,35.10
2022-10-12T06:51:51.579Z,35.37
2022-10-12T06:52:53.613Z,35.37
2022-10-12T06:53:56.045Z,35.53
2022-10-12T06:54:57.671Z,34.83
2022-10-12T06:55:59.847Z,34.80
2022-10-12T06:57:01.403Z,34.83
2022-10-12T06:58:02.929Z,34.90
2022-10-12T06:59:04.446Z,33.60
2022-10-12T07:00:07.599Z,34.33
2022-10-12T07:01:10.749Z,34.70
2022-10-12T07:02:12.377Z,34.27
2022-10-12T07:03:14.427Z,35.37
2022-10-12T07:04:18.026Z,35.10
2022-10-12T07:05:21.103Z,34.33
2022-10-12T07:06:22.603Z,34.87
2022-10-12T07:07:24.295Z,35.67
2022-10-12T07:08:25.824Z,33.33
2022-10-12T07:09:29.149Z,34.33
2022-10-12T07:10:30.748Z,33.93
2022-10-12T07:11:32.332Z,33.27
2022-10-12T07:12:36.318Z,32.37
2022-10-12T07:13:38.628Z,31.37
2022-10-12T07:14:40.254Z,32.07
2022-10-12T07:15:41.786Z,30.07
2022-10-12T07:16:43.287Z,30.70
2022-10-12T07:17:44.874Z,31.27
2022-10-12T07:18:46.441Z,30.90
2022-10-12T07:19:47.961Z,30.70
2022-10-12T07:20:49.977Z,30.03
2022-10-12T07:21:51.532Z,29.60
2022-10-12T07:22:53.495Z,29.43
2022-10-12T07:23:55.035Z,30.47
2022-10-12T07:24:56.683Z,29.37
2022-10-12T07:25:58.668Z,28.93
2022-10-12T07:27:00.214Z,30.50
2022-10-12T07:28:02.963Z,29.83
2022-10-12T07:29:04.488Z,30.27
2022-10-12T07:30:06.550Z,29.43
2022-10-12T07:31:09.779Z,28.87
2022-10-12T07:32:11.329Z,29.13
2022-10-12T07:33:13.173Z,29.77
2022-10-12T07:34:14.683Z,27.73
2022-10-12T07:35:16.245Z,27.50
2022-10-12T07:36:21.765Z,27.80
2022-10-12T07:37:23.765Z,26.50
2022-10-12T07:38:25.345Z,27.00
2022-10-12T07:39:26.971Z,26.93
2022-10-12T07:40:29.378Z,26.93
2022-10-12T07:41:30.936Z,26.63
2022-10-12T07:42:32.458Z,27.67
2022-10-12T07:43:34.064Z,27.57
2022-10-12T07:44:35.783Z,27.63
2022-10-12T07:45:37.393Z,26.10
2022-10-12T07:46:39.627Z,27.13
2022-10-12T07:47:41.545Z,27.23
2022-10-12T07:48:47.496Z,27.73
2022-10-12T07:49:51.482Z,25.48
2022-10-12T07:50:53.106Z,21.10
2022-10-12T07:51:54.646Z,21.38
2022-10-12T07:52:56.160Z,20.90
2022-10-12T07:53:57.680Z,21.20
2022-10-12T07:54:59.190Z,21.93
2022-10-12T07:56:09.509Z,21.10
2022-10-12T07:57:11.037Z,22.35
2022-10-12T07:58:12.977Z,22.17
2022-10-12T07:59:15.062Z,20.00
2022-10-12T08:00:16.845Z,18.80
2022-10-12T08:01:19.679Z,18.05
2022-10-12T08:02:21.780Z,18.65
2022-10-12T08:03:23.372Z,20.27
2022-10-12T08:04:24.872Z,18.58
2022-10-12T08:05:27.253Z,20.60
2022-10-12T08:06:31.754Z,18.40
2022-10-12T08:07:33.421Z,19.77
2022-10-12T08:08:34.937Z,18.65
2022-10-12T08:09:36.667Z,20.42
2022-10-12T08:10:38.187Z,18.00
2022-10-12T08:11:40.941Z,19.95
2022-10-12T08:12:42.650Z,18.75
2022-10-12T08:13:44.509Z,19.55
2022-10-12T08:14:46.083Z,19.08
2022-10-12T08:15:51.153Z,19.05
2022-10-12T08:16:52.673Z,17.43
2022-10-12T08:17:54.239Z,18.00
2022-10-12T08:18:55.819Z,17.80
2022-10-12T08:19:57.584Z,18.10
2022-10-12T08:20:59.168Z,18.97
2022-10-12T08:22:00.704Z,17.60
2022-10-12T08:23:02.233Z,19.27
2022-10-12T08:24:03.889Z,18.73
2022-10-12T08:25:06.373Z,17.90
2022-10-12T08:26:08.011Z,18.70
2022-10-12T08:27:10.669Z,18.20
2022-10-12T08:28:12.205Z,17.67
2022-10-12T08:29:13.759Z,17.80
2022-10-12T08:30:15.451Z,17.85
2022-10-12T08:31:17.883Z,17.63
2022-10-12T08:32:19.443Z,17.38
2022-10-12T08:33:21.659Z,18.60
2022-10-12T08:34:24.994Z,18.67
2022-10-12T08:35:26.643Z,17.83
2022-10-12T08:36:28.237Z,18.08
2022-10-12T08:37:30.404Z,18.33
2022-10-12T08:38:32.236Z,17.85
2022-10-12T08:39:33.812Z,18.48
2022-10-12T08:40:47.498Z,17.02
2022-10-12T08:41:54.788Z,17.63
2022-10-12T08:43:09.104Z,16.48
2022-10-12T08:44:22.693Z,16.90
2022-10-12T08:45:30.777Z,18.05
2022-10-12T08:46:32.951Z,16.17
2022-10-12T08:47:34.440Z,17.48
2022-10-12T08:48:42.643Z,17.85
2022-10-12T08:49:49.697Z,16.58
2022-10-12T08:51:02.451Z,17.08
2022-10-12T08:52:21.046Z,18.40
2022-10-12T08:53:47.813Z,18.77
2022-10-12T08:54:49.460Z,19.00
2022-10-12T08:55:52.682Z,18.05
2022-10-12T08:56:54.831Z,16.80
2022-10-12T08:57:57.245Z,18.30
2022-10-12T08:58:58.905Z,17.40
2022-10-12T09:00:01.630Z,16.30
2022-10-12T09:01:37.362Z,17.35
2022-10-12T09:02:54.043Z,16.17
2022-10-12T09:04:08.227Z,16.98
2022-10-12T09:05:16.832Z,16.27
2022-10-12T09:06:19.957Z,16.35
2022-10-12T09:07:30.830Z,19.65
2022-10-12T09:08:38.369Z,17.88
2022-10-12T09:10:01.290Z,17.27
2022-10-12T09:11:34.945Z,17.30
2022-10-12T09:12:47.456Z,17.65
2022-10-12T09:14:00.816Z,18.02
2022-10-12T09:15:08.763Z,18.27
2022-10-12T09:16:23.120Z,18.55
2022-10-12T09:17:30.135Z,17.13
2022-10-12T09:18:40.893Z,18.45
2022-10-12T09:19:42.965Z,18.38
2022-10-12T09:20:48.001Z,17.25
2022-10-12T09:21:50.509Z,17.60
2022-10-12T09:23:15.040Z,17.73
2022-10-12T09:24:29.107Z,17.77
2022-10-12T09:25:30.951Z,18.75
2022-10-12T09:26:37.580Z,18.33
2022-10-12T09:27:45.095Z,18.10
2022-10-12T09:28:58.083Z,18.65
2022-10-12T09:30:03.253Z,19.05
2022-10-12T09:31:10.864Z,17.95
2022-10-12T09:32:42.845Z,17.85
2022-10-12T09:33:51.797Z,18.73
2022-10-12T09:34:54.454Z,18.52
2022-10-12T09:35:56.758Z,18.77
2022-10-12T09:36:58.331Z,18.85
2022-10-12T09:38:00.861Z,19.23
2022-10-12T09:39:25.681Z,18.45
2022-10-12T09:40:32.862Z,17.88
2022-10-12T09:41:41.526Z,18.50
2022-10-12T09:42:45.859Z,18.58
2022-10-12T09:43:51.293Z,17.67
2022-10-12T09:45:01.976Z,17.98
2022-10-12T09:46:08.355Z,17.80
2022-10-12T09:47:24.043Z,18.15
2022-10-12T09:48:26.310Z,18.00
2022-10-12T09:49:51.869Z,18.10
2022-10-12T09:51:00.809Z,18.83
2022-10-12T09:52:03.046Z,17.58
2022-10-12T09:53:13.689Z,17.83
2022-10-12T09:54:20.589Z,17.75
2022-10-12T09:56:33.645Z,16.92
2022-10-12T09:57:41.221Z,18.40
2022-10-12T09:59:02.173Z,18.23
2022-10-12T10:00:19.549Z,17.08
2022-10-12T10:01:32.606Z,16.73
2022-10-12T10:02:48.435Z,18.35
2022-10-12T10:04:10.407Z,17.05
2022-10-12T10:05:33.496Z,16.77
2022-10-12T10:06:40.309Z,16.90
2022-10-12T10:07:41.905Z,17.52
2022-10-12T10:08:45.562Z,17.65
2022-10-12T10:09:48.995Z,16.60
2022-10-12T10:10:55.554Z,17.83
2022-10-12T10:11:59.089Z,16.58
2022-10-12T10:13:03.043Z,16.85
2022-10-12T10:14:04.658Z,18.02
2022-10-12T10:15:30.332Z,16.35
2022-10-12T10:16:31.920Z,17.05
2022-10-12T10:17:34.081Z,16.92
2022-10-12T10:18:53.981Z,18.38
2022-10-12T10:19:57.103Z,17.85
2022-10-12T10:21:00.289Z,17.58
2022-10-12T10:22:06.701Z,16.40
2022-10-12T10:23:24.615Z,16.95
2022-10-12T10:24:31.665Z,17.77
2022-10-12T10:25:34.496Z,16.58
2022-10-12T10:26:56.825Z,17.40
2022-10-12T10:28:23.392Z,17.50
2022-10-12T10:29:41.381Z,16.55
2022-10-12T10:30:43.406Z,15.30
2022-10-12T10:31:48.004Z,15.82
2022-10-12T10:33:06.412Z,15.35
2022-10-12T10:34:12.779Z,16.15
2022-10-12T10:35:14.287Z,14.50
2022-10-12T10:36:22.447Z,15.25
2022-10-12T10:37:24.279Z,15.57
2022-10-12T10:38:26.121Z,15.88
2022-10-12T10:39:32.930Z,15.45
2022-10-12T10:40:34.838Z,15.63
2022-10-12T10:41:39.591Z,15.32
2022-10-12T10:42:41.177Z,14.77
2022-10-12T10:43:47.155Z,16.13
2022-10-12T10:44:57.117Z,15.82
2022-10-12T10:46:02.096Z,16.17
2022-10-12T10:47:11.682Z,15.18
2022-10-12T10:48:20.497Z,16.05
2022-10-12T10:49:33.537Z,16.17
2022-10-12T10:50:41.348Z,16.10
2022-10-12T10:51:53.987Z,16.90
2022-10-12T10:52:59.073Z,15.70
2022-10-12T10:54:14.011Z,15.57
2022-10-12T10:55:21.800Z,15.30
2022-10-12T10:56:28.118Z,15.80
2022-10-12T10:57:29.747Z,16.73
2022-10-12T10:58:38.955Z,15.77
2022-10-12T11:00:33.462Z,15.05
2022-10-12T11:01:38.718Z,17.25
2022-10-12T11:02:56.924Z,15.43
2022-10-12T11:04:04.526Z,16.27
2022-10-12T11:05:20.912Z,15.15
2022-10-12T11:07:07.315Z,15.20
2022-10-12T11:08:23.934Z,15.93
2022-10-12T11:09:34.499Z,14.98
2022-10-12T11:10:44.172Z,15.32
2022-10-12T11:11:53.936Z,16.85
2022-10-12T11:13:01.165Z,16.23
2022-10-12T11:14:15.143Z,15.48
2022-10-12T11:15:29.836Z,14.90
2022-10-12T11:16:40.721Z,16.13
2022-10-12T11:17:46.767Z,15.48
2022-10-12T11:18:56.074Z,14.98
2022-10-12T11:20:06.749Z,16.55
2022-10-12T11:21:15.553Z,14.65
2022-10-12T11:22:32.959Z,14.48
2022-10-12T11:23:48.951Z,15.20
2022-10-12T11:24:58.770Z,15.02
2022-10-12T11:26:03.611Z,14.65
2022-10-12T11:27:12.766Z,14.93
2022-10-12T11:28:16.500Z,15.65
2022-10-12T11:29:18.523Z,15.15
2022-10-12T11:30:26.230Z,15.15
2022-10-12T11:31:42.946Z,14.80
2022-10-12T11:32:53.475Z,15.93
2022-10-12T11:33:58.444Z,14.00
2022-10-12T11:35:03.834Z,15.30
2022-10-12T11:36:13.397Z,14.70
2022-10-12T11:37:20.987Z,15.13
2022-10-12T11:38:36.178Z,15.00
2022-10-12T11:39:45.171Z,15.68
2022-10-12T11:42:21.942Z,16.13
2022-10-12T11:43:30.237Z,14.48
2022-10-12T11:44:46.334Z,14.45
2022-10-12T11:45:52.224Z,15.35
2022-10-12T11:47:04.627Z,15.30
2022-10-12T11:48:41.418Z,15.15
2022-10-12T11:50:01.795Z,14.35
2022-10-12T11:51:05.541Z,14.82
2022-10-12T11:52:11.055Z,14.88
2022-10-12T11:53:40.579Z,16.15
2022-10-12T11:54:55.501Z,15.30
2022-10-12T11:56:25.036Z,15.43
2022-10-12T11:57:31.437Z,15.07
2022-10-12T11:59:00.070Z,15.48
2022-10-12T12:00:22.652Z,15.77
2022-10-12T12:01:42.489Z,14.88
2022-10-12T12:02:56.263Z,15.57
2022-10-12T12:04:47.861Z,15.40
2022-10-12T12:05:40.977Z,14.80
2022-10-12T12:06:49.199Z,13.90
2022-10-12T12:07:55.498Z,14.35
2022-10-12T12:08:59.129Z,14.45
2022-10-12T12:10:00.697Z,12.95
2022-10-12T12:11:19.468Z,15.00
2022-10-12T12:12:26.554Z,13.95
2022-10-12T12:13:28.584Z,15.30
2022-10-12T12:14:30.162Z,14.93
2022-10-12T12:15:31.772Z,15.25
2022-10-12T12:16:33.686Z,13.73
2022-10-12T12:17:36.267Z,14.60
2022-10-12T12:19:15.157Z,15.10
2022-10-12T12:20:44.820Z,14.23
2022-10-12T12:22:14.335Z,14.93
2022-10-12T12:23:18.773Z,15.13
2022-10-12T12:24:20.407Z,14.45
2022-10-12T12:25:27.818Z,15.13
2022-10-12T12:26:30.681Z,14.07
2022-10-12T12:27:42.997Z,14.77
2022-10-12T12:29:09.367Z,14.32
2022-10-12T12:30:20.405Z,14.98
2022-10-12T12:31:24.775Z,14.57
2022-10-12T12:32:39.559Z,13.95
2022-10-12T12:33:42.978Z,15.00
2022-10-12T12:35:00.274Z,14.60
2022-10-12T12:36:06.329Z,14.07
2022-10-12T12:37:13.859Z,14.30
2022-10-12T12:38:20.182Z,14.35
2022-10-12T12:39:33.142Z,14.30
2022-10-12T12:40:35.533Z,15.30
2022-10-12T12:42:01.656Z,14.55
2022-10-12T12:43:38.753Z,14.50
2022-10-12T12:44:43.062Z,15.35
2022-10-12T12:46:06.590Z,14.90
2022-10-12T12:48:41.595Z,14.32
2022-10-12T12:49:55.162Z,13.13
2022-10-12T12:50:59.857Z,13.38
2022-10-12T12:52:01.614Z,12.82
2022-10-12T12:53:08.488Z,13.45
2022-10-12T12:54:20.949Z,14.20
2022-10-12T12:55:25.676Z,14.05
2022-10-12T12:56:51.001Z,14.75
2022-10-12T12:57:55.372Z,14.45
2022-10-12T12:59:01.243Z,14.25
2022-10-12T13:00:12.337Z,15.65
2022-10-12T13:01:44.104Z,14.88
2022-10-12T13:02:55.789Z,14.73
2022-10-12T13:04:14.143Z,14.70
2022-10-12T13:05:52.624Z,14.15
2022-10-12T13:07:12.424Z,14.55
2022-10-12T13:08:32.037Z,15.10
2022-10-12T13:09:59.737Z,15.32
2022-10-12T13:11:24.419Z,15.48
2022-10-12T13:12:35.918Z,14.70
2022-10-12T13:14:09.631Z,14.50
2022-10-12T13:15:23.428Z,14.02
2022-10-12T13:18:52.442Z,14.15
2022-10-12T13:19:55.701Z,15.65
2022-10-12T13:20:57.636Z,15.68
2022-10-12T13:22:04.358Z,15.52
2022-10-12T13:23:13.118Z,15.32
2022-10-12T13:24:31.760Z,15.82
2022-10-12T13:25:40.311Z,14.57
2022-10-12T13:26:45.416Z,15.27
2022-10-12T13:27:49.576Z,16.40
2022-10-12T13:28:52.570Z,15.00
2022-10-12T13:29:59.510Z,14.77
2022-10-12T13:31:04.834Z,15.32
2022-10-12T13:32:15.092Z,14.65
2022-10-12T13:33:32.427Z,15.80
2022-10-12T13:34:45.192Z,15.07
2022-10-12T13:36:25.943Z,15.82
2022-10-12T13:37:32.079Z,14.90
2022-10-12T13:38:35.917Z,14.85
2022-10-12T13:39:45.451Z,14.52
2022-10-12T13:41:02.234Z,15.52
2022-10-12T13:42:04.144Z,15.63
2022-10-12T13:43:28.526Z,15.32
2022-10-12T13:44:34.640Z,15.02
2022-10-12T13:45:44.652Z,15.63
2022-10-12T13:46:51.476Z,15.27
2022-10-12T13:47:53.070Z,15.35
2022-10-12T13:48:59.742Z,15.57
2022-10-12T13:50:01.854Z,15.07
2022-10-12T13:51:21.587Z,14.60
2022-10-12T13:52:32.628Z,15.45
2022-10-12T13:53:37.595Z,15.73
2022-10-12T13:54:44.431Z,15.45
2022-10-12T13:56:01.562Z,15.00
2022-10-12T13:58:22.572Z,15.15
2022-10-12T13:59:26.174Z,14.95
2022-10-12T14:00:28.434Z,15.18
2022-10-12T14:01:30.001Z,15.32
2022-10-12T14:02:31.874Z,15.05
2022-10-12T14:03:42.888Z,14.48
2022-10-12T14:04:44.471Z,14.77
2022-10-12T14:05:46.116Z,14.60
2022-10-12T14:07:12.119Z,15.15
2022-10-12T14:08:16.609Z,14.48
2022-10-12T14:09:24.254Z,15.05
2022-10-12T14:10:34.913Z,16.08
2022-10-12T14:11:37.967Z,16.42
2022-10-12T14:12:40.335Z,15.95
2022-10-12T14:13:42.479Z,14.98
2022-10-12T14:14:46.446Z,15.68
2022-10-12T14:15:48.609Z,15.88
2022-10-12T14:16:51.327Z,15.18
2022-10-12T14:17:52.903Z,15.20
2022-10-12T14:18:54.599Z,15.15
2022-10-12T14:19:59.855Z,15.20
2022-10-12T14:21:10.370Z,14.52
2022-10-12T14:22:18.745Z,14.73
2022-10-12T14:23:23.747Z,15.55
2022-10-12T14:24:25.641Z,13.98
2022-10-12T14:25:30.015Z,14.50
2022-10-12T14:26:43.222Z,14.00